createdAt,value
2018-04-10T00:06:51.893Z,994.51
2018-04-10T00:16:51.885Z,994.57
2018-04-10T00:26:51.933Z,994.55
2018-04-10T00:36:51.920Z,994.56
2018-04-10T00:46:51.861Z,994.53
2018-04-10T00:56:51.929Z,994.59
2018-04-10T01:06:51.899Z,994.64
2018-04-10T01:16:51.839Z,994.63
2018-04-10T01:26:51.896Z,994.74
2018-04-10T01:36:51.866Z,994.77
2018-04-10T01:46:51.942Z,994.86
2018-04-10T01:56:51.887Z,994.99
2018-04-10T02:06:51.838Z,995.05
2018-04-10T02:16:51.952Z,995
2018-04-10T02:26:51.915Z,994.91
2018-04-10T02:36:51.873Z,994.77
2018-04-10T02:46:51.937Z,994.79
2018-04-10T02:56:51.950Z,995.02
2018-04-10T03:06:51.951Z,995
2018-04-10T03:16:52.069Z,995.01
2018-04-10T03:26:51.877Z,995.11
2018-04-10T03:36:51.948Z,995.11
2018-04-10T03:46:51.912Z,995.18
2018-04-10T03:56:51.849Z,995.2
2018-04-10T04:06:51.897Z,995.22
2018-04-10T04:16:51.846Z,995.16
2018-04-10T04:26:51.921Z,995.32
2018-04-10T04:36:51.884Z,995.51
2018-04-10T04:46:51.844Z,995.46
2018-04-10T04:56:51.918Z,995.53
2018-04-10T05:06:51.845Z,995.71
2018-04-10T05:16:51.901Z,995.9
2018-04-10T05:26:51.861Z,995.93
2018-04-10T05:36:51.911Z,996.21
2018-04-10T05:46:51.887Z,996.14
2018-04-10T05:56:51.948Z,996.27
2018-04-10T06:06:51.922Z,996.3
2018-04-10T06:16:51.953Z,996.32
2018-04-10T06:26:51.934Z,996.4
2018-04-10T06:36:51.990Z,996.48
2018-04-10T06:46:51.952Z,996.47
2018-04-10T06:56:52.028Z,996.48
2018-04-10T07:06:51.989Z,996.51
2018-04-10T07:16:52.056Z,996.5
2018-04-10T07:26:53.043Z,996.57
2018-04-10T07:36:52.005Z,996.71
2018-04-10T07:46:52.063Z,996.71
2018-04-10T07:56:52.101Z,996.7
2018-04-10T08:06:52.059Z,996.61
2018-04-10T08:16:52.019Z,996.78
2018-04-10T08:26:52.071Z,996.8
2018-04-10T08:36:52.018Z,996.81
2018-04-10T08:46:52.097Z,996.81
2018-04-10T08:56:52.046Z,996.84
2018-04-10T09:06:52.002Z,996.85
2018-04-10T09:16:52.074Z,996.92
2018-04-10T09:26:52.056Z,996.84
2018-04-10T09:36:52.118Z,996.98
2018-04-10T09:46:52.053Z,996.94
2018-04-10T09:56:52.035Z,996.97
2018-04-10T10:06:52.108Z,997.01
2018-04-10T10:16:52.038Z,996.99
2018-04-10T10:26:52.166Z,997.1
2018-04-10T10:36:52.032Z,997.13
2018-04-10T10:46:52.045Z,997.15
2018-04-10T10:56:52.013Z,997.03
2018-04-10T11:06:52.064Z,997
2018-04-10T11:16:51.994Z,996.97
2018-04-10T11:26:52.069Z,996.93
2018-04-10T11:36:52.037Z,996.83
2018-04-10T11:46:52.108Z,996.83
2018-04-10T11:56:52.080Z,996.85
2018-04-10T12:06:52.012Z,996.79
2018-04-10T12:16:52.085Z,996.77
2018-04-10T12:26:52.046Z,996.72
2018-04-10T12:36:52.123Z,996.66
2018-04-10T12:46:52.060Z,996.46
2018-04-10T12:56:52.042Z,996.43
2018-04-10T13:06:52.109Z,996.22
2018-04-10T13:16:52.074Z,996.12
2018-04-10T13:26:52.131Z,996.07
2018-04-10T13:36:52.093Z,996.07
2018-04-10T13:46:52.045Z,995.92
2018-04-10T13:56:52.110Z,995.95
2018-04-10T14:06:52.199Z,995.85
2018-04-10T14:16:52.139Z,995.76
2018-04-10T14:26:52.106Z,995.75
2018-04-10T14:36:52.203Z,995.73
2018-04-10T14:46:52.139Z,995.63
2018-04-10T14:56:52.098Z,995.46
2018-04-10T15:06:52.146Z,995.43
2018-04-10T15:16:52.149Z,995.3
2018-04-10T15:26:52.094Z,995.21
2018-04-10T15:36:53.082Z,995.2
2018-04-10T15:46:52.126Z,995.15
2018-04-10T15:56:52.094Z,995.14
2018-04-10T16:06:52.178Z,995.13
2018-04-10T16:16:52.142Z,995.26
2018-04-10T16:26:52.620Z,995.2
2018-04-10T16:36:52.144Z,995.14
2018-04-10T16:46:52.126Z,995.1
2018-04-10T16:56:52.174Z,995.12
2018-04-10T17:06:52.146Z,995.14
2018-04-10T17:16:52.081Z,995.1
2018-04-10T17:26:53.080Z,995.04
2018-04-10T17:36:52.133Z,995.02
2018-04-10T17:46:52.096Z,995.1
2018-04-10T17:56:52.147Z,995.14
2018-04-10T18:06:53.211Z,995.21
2018-04-10T18:16:52.130Z,995.42
2018-04-10T18:26:52.197Z,995.55
2018-04-10T18:36:52.194Z,995.62
2018-04-10T18:46:52.116Z,995.7
2018-04-10T18:56:52.191Z,995.69
2018-04-10T19:06:52.064Z,995.81
2018-04-10T19:16:52.287Z,995.8
2018-04-10T19:26:52.260Z,995.88
2018-04-10T19:36:52.108Z,995.95
2018-04-10T19:46:52.170Z,996
2018-04-10T19:56:52.120Z,996.03
2018-04-10T20:06:52.076Z,996.06
2018-04-10T20:16:52.153Z,996.05
2018-04-10T20:26:52.120Z,996.15
2018-04-10T20:36:52.164Z,996.29
2018-04-10T20:46:52.152Z,996.29
2018-04-10T20:56:52.196Z,996.41
2018-04-10T21:06:52.345Z,996.36
2018-04-10T21:16:53.145Z,996.74
2018-04-10T21:26:52.160Z,996.8
2018-04-10T21:36:52.123Z,997.15
2018-04-10T21:46:52.349Z,997.28
2018-04-10T21:56:54.142Z,997.36
2018-04-10T22:06:52.142Z,997.42
2018-04-10T22:16:52.174Z,997.43
2018-04-10T22:26:52.165Z,997.57
2018-04-10T22:36:52.076Z,997.65
2018-04-10T22:46:52.073Z,997.57
2018-04-10T22:56:52.248Z,997.52
2018-04-10T23:06:52.131Z,997.49
2018-04-10T23:16:52.160Z,997.65
2018-04-10T23:26:52.167Z,997.67
2018-04-10T23:36:52.127Z,997.74
2018-04-10T23:46:52.222Z,997.71
2018-04-10T23:56:52.153Z,997.75
